createdAt,value
2023-01-21T00:00:55.514Z,30.77
2023-01-21T00:06:05.096Z,26.47
2023-01-21T00:11:16.499Z,28.20
2023-01-21T00:16:22.799Z,29.87
2023-01-21T00:21:31.940Z,30.77
2023-01-21T00:26:37.650Z,32.47
2023-01-21T00:31:43.284Z,38.87
2023-01-21T00:36:54.476Z,37.97
2023-01-21T00:42:05.430Z,41.67
2023-01-21T00:47:11.545Z,76.93
2023-01-21T00:52:20.138Z,54.00
2023-01-21T00:57:26.514Z,53.43
2023-01-21T01:02:33.531Z,60.57
2023-01-21T01:07:46.269Z,47.43
2023-01-21T01:12:52.540Z,46.73
2023-01-21T01:17:58.451Z,43.83
2023-01-21T01:23:07.245Z,50.70
2023-01-21T01:28:13.550Z,46.10
2023-01-21T01:33:19.606Z,49.67
2023-01-21T01:38:29.921Z,56.13
2023-01-21T01:43:58.527Z,42.50
2023-01-21T01:49:15.272Z,44.13
2023-01-21T01:54:29.287Z,47.90
2023-01-21T01:59:36.631Z,36.17
2023-01-21T02:04:47.660Z,41.40
2023-01-21T02:10:15.257Z,39.27
2023-01-21T02:15:21.524Z,35.50
2023-01-21T02:20:55.655Z,34.50
2023-01-21T02:26:35.392Z,24.93
2023-01-21T02:32:14.030Z,28.17
2023-01-21T02:37:30.822Z,28.57
2023-01-21T02:42:43.732Z,25.23
2023-01-21T02:47:55.983Z,31.07
2023-01-21T02:53:06.645Z,40.50
2023-01-21T02:58:15.259Z,27.97
2023-01-21T03:03:35.818Z,29.73
2023-01-21T03:08:51.470Z,25.00
2023-01-21T03:14:16.762Z,31.43
2023-01-21T03:19:25.530Z,27.93
2023-01-21T03:24:35.955Z,24.90
2023-01-21T03:29:44.125Z,26.77
2023-01-21T03:34:55.337Z,26.10
2023-01-21T03:40:15.783Z,32.33
2023-01-21T03:45:27.717Z,26.47
2023-01-21T03:50:38.761Z,27.20
2023-01-21T03:55:47.841Z,28.53
2023-01-21T04:00:53.267Z,30.83
2023-01-21T04:05:59.627Z,26.83
2023-01-21T04:11:08.214Z,30.00
2023-01-21T04:16:16.469Z,31.17
2023-01-21T04:21:21.924Z,27.47
2023-01-21T04:26:31.789Z,26.67
2023-01-21T04:31:37.743Z,30.13
2023-01-21T04:36:43.356Z,25.47
2023-01-21T04:41:52.781Z,25.33
2023-01-21T04:47:00.639Z,26.30
2023-01-21T04:52:06.452Z,30.00
2023-01-21T04:57:14.756Z,23.37
2023-01-21T05:02:20.180Z,19.27
2023-01-21T05:07:26.468Z,26.57
2023-01-21T05:12:35.113Z,26.00
2023-01-21T05:17:40.838Z,24.93
2023-01-21T05:22:49.096Z,23.97
2023-01-21T05:28:00.121Z,23.30
2023-01-21T05:33:06.122Z,25.57
2023-01-21T05:38:11.716Z,23.57
2023-01-21T05:43:19.918Z,27.50
2023-01-21T05:48:26.395Z,31.77
2023-01-21T05:53:32.120Z,37.50
2023-01-21T05:58:40.373Z,37.70
2023-01-21T06:03:45.977Z,43.10
2023-01-21T06:08:51.506Z,35.10
2023-01-21T06:13:59.874Z,37.50
2023-01-21T06:19:05.318Z,28.93
2023-01-21T06:24:11.473Z,30.10
2023-01-21T06:29:19.946Z,29.47
2023-01-21T06:34:25.358Z,25.67
2023-01-21T06:39:31.076Z,26.00
2023-01-21T06:44:38.935Z,27.00
2023-01-21T06:49:47.351Z,26.23
2023-01-21T06:54:53.189Z,26.93
2023-01-21T07:00:01.340Z,33.53
2023-01-21T07:05:07.498Z,22.80
2023-01-21T07:10:14.821Z,22.93
2023-01-21T07:15:23.594Z,21.43
2023-01-21T07:20:29.517Z,25.77
2023-01-21T07:25:36.443Z,24.10
2023-01-21T07:30:44.585Z,26.97
2023-01-21T07:35:50.331Z,24.67
2023-01-21T07:40:55.969Z,27.00
2023-01-21T07:46:05.473Z,27.73
2023-01-21T07:51:10.866Z,28.67
2023-01-21T07:56:18.388Z,30.23
2023-01-21T08:01:31.279Z,25.57
2023-01-21T08:06:38.029Z,23.73
2023-01-21T08:11:43.640Z,26.93
2023-01-21T08:16:51.914Z,25.77
2023-01-21T08:21:57.928Z,23.40
2023-01-21T08:27:03.762Z,24.77
2023-01-21T08:32:12.766Z,27.17
2023-01-21T08:37:18.427Z,21.70
2023-01-21T08:42:23.872Z,24.90
2023-01-21T08:47:32.235Z,25.13
2023-01-21T08:52:37.868Z,26.70
2023-01-21T08:57:43.382Z,24.97
2023-01-21T09:02:51.969Z,27.17
2023-01-21T09:07:58.293Z,24.83
2023-01-21T09:13:07.630Z,21.50
2023-01-21T09:18:15.850Z,25.07
2023-01-21T09:23:28.422Z,23.30
2023-01-21T09:28:35.036Z,24.43
2023-01-21T09:33:46.272Z,24.37
2023-01-21T09:38:52.778Z,22.10
2023-01-21T09:44:06.597Z,22.37
2023-01-21T09:49:21.977Z,27.53
2023-01-21T09:54:30.328Z,20.83
2023-01-21T09:59:52.076Z,21.57
2023-01-21T10:05:16.427Z,20.60
2023-01-21T10:10:33.003Z,23.10
2023-01-21T10:15:58.649Z,21.40
2023-01-21T10:21:16.786Z,20.73
2023-01-21T10:26:22.285Z,25.90
2023-01-21T10:31:30.339Z,22.93
2023-01-21T10:36:52.243Z,23.60
2023-01-21T10:42:42.767Z,18.97
2023-01-21T10:47:53.879Z,17.80
2023-01-21T10:53:09.619Z,23.57
2023-01-21T10:58:33.119Z,21.07
2023-01-21T11:03:43.063Z,20.57
2023-01-21T11:08:56.243Z,18.80
2023-01-21T11:14:02.427Z,18.23
2023-01-21T11:19:10.591Z,18.27
2023-01-21T11:24:30.006Z,19.40
2023-01-21T11:29:44.638Z,19.30
2023-01-21T11:34:52.053Z,20.70
2023-01-21T11:40:02.695Z,19.00
2023-01-21T11:45:30.137Z,19.43
2023-01-21T11:50:40.027Z,19.60
2023-01-21T11:55:50.944Z,17.47
2023-01-21T12:01:01.809Z,19.30
2023-01-21T12:06:09.638Z,18.93
2023-01-21T12:11:24.259Z,18.30
2023-01-21T12:16:37.127Z,17.73
2023-01-21T12:21:57.673Z,19.07
2023-01-21T12:27:19.689Z,17.67
2023-01-21T12:32:30.838Z,16.33
2023-01-21T12:37:43.095Z,16.57
2023-01-21T12:42:56.755Z,17.10
2023-01-21T12:48:08.094Z,16.83
2023-01-21T12:53:23.661Z,14.70
2023-01-21T12:58:37.174Z,16.87
2023-01-21T13:03:55.330Z,17.47
2023-01-21T13:09:11.535Z,16.70
2023-01-21T13:14:30.529Z,16.90
2023-01-21T13:19:39.118Z,16.67
2023-01-21T13:25:18.759Z,14.93
2023-01-21T13:30:38.089Z,13.33
2023-01-21T13:35:57.276Z,14.43
2023-01-21T13:41:18.295Z,18.00
2023-01-21T13:46:42.801Z,16.93
2023-01-21T13:51:59.954Z,14.67
2023-01-21T13:57:29.161Z,16.70
2023-01-21T14:02:55.326Z,14.60
2023-01-21T14:08:09.777Z,13.03
2023-01-21T14:13:45.137Z,13.93
2023-01-21T14:19:08.291Z,13.90
2023-01-21T14:24:32.153Z,14.60
2023-01-21T14:29:41.509Z,12.80
2023-01-21T14:35:10.238Z,11.60
2023-01-21T14:40:23.105Z,12.57
2023-01-21T14:45:56.680Z,14.47
2023-01-21T14:51:25.484Z,13.40
2023-01-21T14:56:34.359Z,10.50
2023-01-21T15:01:46.798Z,12.67
2023-01-21T15:06:58.759Z,10.70
2023-01-21T15:12:08.689Z,9.83
2023-01-21T15:17:44.573Z,13.53
2023-01-21T15:23:07.017Z,8.30
2023-01-21T15:28:44.468Z,9.97
2023-01-21T15:33:51.978Z,8.83
2023-01-21T15:39:03.399Z,6.90
2023-01-21T15:44:19.405Z,8.10
2023-01-21T15:49:52.279Z,6.10
2023-01-21T15:55:12.699Z,7.20
2023-01-21T16:00:31.518Z,7.63
2023-01-21T16:05:46.960Z,7.20
2023-01-21T16:11:08.508Z,5.00
2023-01-21T16:16:26.595Z,6.40
2023-01-21T16:21:37.400Z,4.90
2023-01-21T16:26:46.449Z,4.97
2023-01-21T16:31:59.510Z,5.00
2023-01-21T16:37:09.185Z,4.80
2023-01-21T16:42:29.233Z,3.50
2023-01-21T16:47:38.852Z,3.43
2023-01-21T16:52:44.064Z,3.77
2023-01-21T16:57:58.306Z,6.37
2023-01-21T17:03:04.837Z,4.10
2023-01-21T17:08:15.720Z,4.37
2023-01-21T17:13:25.801Z,3.90
2023-01-21T17:18:34.951Z,3.00
2023-01-21T17:23:53.890Z,4.33
2023-01-21T17:29:13.831Z,2.87
2023-01-21T17:34:24.953Z,3.67
2023-01-21T17:40:01.263Z,2.73
2023-01-21T17:45:22.522Z,3.30
2023-01-21T17:50:30.442Z,3.03
2023-01-21T17:55:38.040Z,2.93
2023-01-21T18:00:48.807Z,2.83
2023-01-21T18:05:54.465Z,3.63
2023-01-21T18:10:59.599Z,2.60
2023-01-21T18:16:07.910Z,3.17
2023-01-21T18:21:22.934Z,3.73
2023-01-21T18:26:31.399Z,3.00
2023-01-21T18:31:39.101Z,2.60
2023-01-21T18:36:44.934Z,2.87
2023-01-21T18:41:50.007Z,2.50
2023-01-21T18:46:57.900Z,3.13
2023-01-21T18:52:03.259Z,3.57
2023-01-21T18:57:09.314Z,3.07
2023-01-21T19:02:20.531Z,2.93
2023-01-21T19:07:26.297Z,3.00
2023-01-21T19:12:33.606Z,3.40
2023-01-21T19:17:42.457Z,4.23
2023-01-21T19:22:47.515Z,3.80
2023-01-21T19:27:54.627Z,3.17
2023-01-21T19:33:03.747Z,3.73
2023-01-21T19:38:13.946Z,3.07
2023-01-21T19:43:21.467Z,3.90
2023-01-21T19:48:31.358Z,3.93
2023-01-21T19:53:36.285Z,4.33
2023-01-21T19:58:42.225Z,3.20
2023-01-21T20:03:59.653Z,3.37
2023-01-21T20:09:05.942Z,4.47
2023-01-21T20:14:11.301Z,3.23
2023-01-21T20:19:22.806Z,4.13
2023-01-21T20:24:30.310Z,4.03
2023-01-21T20:29:36.014Z,4.07
2023-01-21T20:34:45.139Z,3.87
2023-01-21T20:39:49.983Z,3.53
2023-01-21T20:44:55.084Z,4.17
2023-01-21T20:50:02.683Z,3.50
2023-01-21T20:55:08.823Z,4.73
2023-01-21T21:00:19.151Z,3.30
2023-01-21T21:05:28.866Z,4.33
2023-01-21T21:10:37.676Z,4.17
2023-01-21T21:15:46.425Z,4.60
2023-01-21T21:20:55.346Z,4.93
2023-01-21T21:26:00.345Z,6.63
2023-01-21T21:31:05.376Z,7.33
2023-01-21T21:36:17.529Z,4.77
2023-01-21T21:41:37.133Z,4.70
2023-01-21T21:46:55.569Z,4.77
2023-01-21T21:52:03.160Z,4.43
2023-01-21T21:57:08.137Z,4.47
2023-01-21T22:02:13.654Z,5.20
2023-01-21T22:07:21.647Z,5.00
2023-01-21T22:12:26.593Z,4.03
2023-01-21T22:17:31.622Z,4.20
2023-01-21T22:22:39.313Z,4.83
2023-01-21T22:27:44.258Z,4.53
2023-01-21T22:32:49.107Z,4.67
2023-01-21T22:37:56.764Z,4.90
2023-01-21T22:43:01.644Z,7.77
2023-01-21T22:48:06.796Z,6.47
2023-01-21T22:53:14.701Z,10.07
2023-01-21T22:58:19.639Z,8.33
2023-01-21T23:03:25.507Z,7.53
2023-01-21T23:08:33.013Z,6.87
2023-01-21T23:13:38.427Z,6.30
2023-01-21T23:18:43.782Z,6.63
2023-01-21T23:23:52.354Z,5.97
2023-01-21T23:28:58.642Z,4.90
2023-01-21T23:34:03.743Z,6.67
2023-01-21T23:39:11.317Z,5.23
2023-01-21T23:44:16.223Z,6.80
2023-01-21T23:49:21.236Z,5.07
2023-01-21T23:54:28.923Z,6.50
2023-01-21T23:59:33.742Z,5.87
